Time,TemperatureF,DewpointF,PressureIn,WindDirection,WindDirectionDegrees,WindSpeedMPH,WindSpeedGustMPH,Humidity,HourlyPrecipIn,Conditions,Clouds,dailyrainin,SolarRadiationWatts/m^2,SoftwareType,DateUTC
2013-01-21 00:22:00,62.0,57.0,-100.00,North,9,5.0,12.0,84,0.00,,,-99.99,0.000000,,2013-01-21 10:22:00,
2013-01-21 00:32:00,62.0,57.0,-100.00,North,9,5.0,12.0,84,0.00,,,-99.99,0.000000,,2013-01-21 10:32:00,
2013-01-21 00:42:00,62.0,57.0,-100.00,North,9,5.0,12.0,84,0.00,,,-99.99,0.000000,,2013-01-21 10:42:00,
2013-01-21 00:52:00,62.0,57.0,-100.00,North,9,5.0,12.0,84,0.00,,,-99.99,0.000000,,2013-01-21 10:52:00,
2013-01-21 01:22:00,61.0,57.0,-100.00,NNW,340,3.0,9.0,86,0.00,,,-99.99,0.000000,,2013-01-21 11:22:00,
2013-01-21 01:32:00,61.0,57.0,-100.00,NNW,340,3.0,9.0,86,0.00,,,-99.99,0.000000,,2013-01-21 11:32:00,
2013-01-21 01:42:00,61.0,57.0,-100.00,NNW,340,3.0,9.0,86,0.00,,,-99.99,0.000000,,2013-01-21 11:42:00,
2013-01-21 01:53:00,61.0,57.0,-100.00,NNW,340,3.0,9.0,86,0.00,,,-99.99,0.000000,,2013-01-21 11:53:00,
2013-01-21 02:22:00,64.0,58.0,-100.00,NE,48,5.0,12.0,82,0.00,,,0.00,0.000000,,2013-01-21 12:22:00,
2013-01-21 02:32:00,64.0,58.0,-100.00,NE,48,5.0,12.0,82,0.00,,,0.00,0.000000,,2013-01-21 12:32:00,
2013-01-21 02:42:00,64.0,58.0,-100.00,NE,48,5.0,12.0,82,0.00,,,0.00,0.000000,,2013-01-21 12:42:00,
2013-01-21 02:52:00,64.0,58.0,-100.00,NE,48,5.0,12.0,82,0.00,,,0.00,0.000000,,2013-01-21 12:52:00,
2013-01-21 03:23:00,62.0,55.0,-100.00,NNE,25,6.0,16.0,77,0.00,,,0.00,0.000000,,2013-01-21 13:23:00,
2013-01-21 03:33:00,62.0,55.0,-100.00,NNE,25,6.0,16.0,77,0.00,,,0.00,0.000000,,2013-01-21 13:33:00,
2013-01-21 03:42:00,62.0,55.0,-100.00,NNE,25,6.0,16.0,77,0.00,,,0.00,0.000000,,2013-01-21 13:42:00,
2013-01-21 03:53:00,62.0,55.0,-100.00,NNE,25,6.0,16.0,77,0.00,,,0.00,0.000000,,2013-01-21 13:53:00,
2013-01-21 04:23:00,63.0,57.0,-100.00,NNE,16,5.0,12.0,81,0.00,,,0.00,0.000000,,2013-01-21 14:23:00,
2013-01-21 04:32:00,63.0,57.0,-100.00,NNE,16,5.0,12.0,81,0.00,,,0.00,0.000000,,2013-01-21 14:32:00,
2013-01-21 04:43:00,63.0,57.0,-100.00,NNE,16,5.0,12.0,81,0.00,,,0.00,0.000000,,2013-01-21 14:43:00,
2013-01-21 04:52:00,63.0,57.0,-100.00,NNE,16,5.0,12.0,81,0.00,,,0.00,0.000000,,2013-01-21 14:52:00,
2013-01-21 05:23:00,65.0,59.0,-100.00,NNE,14,4.0,15.0,82,0.00,,,0.00,0.000000,,2013-01-21 15:23:00,
2013-01-21 05:33:00,65.0,59.0,-100.00,NNE,14,4.0,15.0,82,0.00,,,0.00,0.000000,,2013-01-21 15:33:00,
2013-01-21 05:42:00,65.0,59.0,-100.00,NNE,14,4.0,15.0,82,0.00,,,0.00,0.000000,,2013-01-21 15:42:00,
2013-01-21 05:52:00,65.0,59.0,-100.00,NNE,14,4.0,15.0,82,0.00,,,0.00,0.000000,,2013-01-21 15:52:00,
2013-01-21 06:23:00,65.0,59.0,-100.00,NNE,30,5.0,18.0,80,0.00,,,0.00,0.000000,,2013-01-21 16:23:00,
2013-01-21 06:33:00,65.0,59.0,-100.00,NNE,30,5.0,18.0,80,0.00,,,0.00,0.000000,,2013-01-21 16:33:00,
2013-01-21 06:43:00,65.0,59.0,-100.00,NNE,30,5.0,18.0,80,0.00,,,0.00,0.000000,,2013-01-21 16:43:00,
2013-01-21 06:53:00,65.0,59.0,-100.00,NNE,30,5.0,18.0,80,0.00,,,0.00,0.000000,,2013-01-21 16:53:00,
2013-01-21 07:22:00,65.0,57.0,-100.00,NE,46,6.0,20.0,76,0.00,,,0.00,0.000000,,2013-01-21 17:22:00,
2013-01-21 07:33:00,65.0,57.0,-100.00,NE,46,6.0,20.0,76,0.00,,,0.00,0.000000,,2013-01-21 17:33:00,
2013-01-21 07:42:00,65.0,57.0,-100.00,NE,46,6.0,20.0,76,0.00,,,0.00,0.000000,,2013-01-21 17:42:00,
2013-01-21 07:52:00,65.0,57.0,-100.00,NE,46,6.0,20.0,76,0.00,,,0.00,0.000000,,2013-01-21 17:52:00,
2013-01-21 08:22:00,66.0,59.0,-100.00,NE,38,7.0,16.0,77,0.00,,,0.00,11.000000,,2013-01-21 18:22:00,
2013-01-21 08:33:00,66.0,59.0,-100.00,NE,38,7.0,16.0,77,0.00,,,0.00,11.000000,,2013-01-21 18:33:00,
2013-01-21 08:42:00,66.0,59.0,-100.00,NE,38,7.0,16.0,77,0.00,,,0.00,11.000000,,2013-01-21 18:42:00,
2013-01-21 08:52:00,66.0,59.0,-100.00,NE,38,7.0,16.0,77,0.00,,,0.00,11.000000,,2013-01-21 18:52:00,
2013-01-21 09:22:00,68.0,59.0,-100.00,NNE,29,9.0,20.0,73,0.00,,,0.00,139.000000,,2013-01-21 19:22:00,
2013-01-21 09:33:00,68.0,59.0,-100.00,NNE,29,9.0,20.0,73,0.00,,,0.00,139.000000,,2013-01-21 19:33:00,
2013-01-21 09:42:00,68.0,59.0,-100.00,NNE,29,9.0,20.0,73,0.00,,,0.00,139.000000,,2013-01-21 19:42:00,
2013-01-21 09:52:00,68.0,59.0,-100.00,NNE,29,9.0,20.0,73,0.00,,,0.00,139.000000,,2013-01-21 19:52:00,
2013-01-21 10:22:00,72.0,60.0,-100.00,ENE,75,8.0,20.0,65,0.00,,,0.00,565.000000,,2013-01-21 20:22:00,
2013-01-21 10:32:00,72.0,60.0,-100.00,ENE,75,8.0,20.0,65,0.00,,,0.00,565.000000,,2013-01-21 20:32:00,
2013-01-21 10:43:00,72.0,60.0,-100.00,ENE,75,8.0,20.0,65,0.00,,,0.00,565.000000,,2013-01-21 20:43:00,
2013-01-21 10:52:00,72.0,60.0,-100.00,ENE,75,8.0,20.0,65,0.00,,,0.00,565.000000,,2013-01-21 20:52:00,
2013-01-21 11:22:00,71.0,58.0,-100.00,ENE,60,9.0,28.0,64,0.00,,,0.00,706.000000,,2013-01-21 21:22:00,
2013-01-21 11:33:00,71.0,58.0,-100.00,ENE,60,9.0,28.0,64,0.00,,,0.00,706.000000,,2013-01-21 21:33:00,
2013-01-21 11:43:00,71.0,58.0,-100.00,ENE,60,9.0,28.0,64,0.00,,,0.00,706.000000,,2013-01-21 21:43:00,
2013-01-21 11:53:00,71.0,58.0,-100.00,ENE,60,9.0,28.0,64,0.00,,,0.00,706.000000,,2013-01-21 21:53:00,
2013-01-21 12:23:00,72.0,59.0,-100.00,NE,46,8.0,23.0,63,0.00,,,0.00,862.000000,,2013-01-21 22:23:00,
2013-01-21 12:33:00,72.0,59.0,-100.00,NE,46,8.0,23.0,63,0.00,,,0.00,862.000000,,2013-01-21 22:33:00,
2013-01-21 12:42:00,72.0,59.0,-100.00,NE,46,8.0,23.0,63,0.00,,,0.00,862.000000,,2013-01-21 22:42:00,
2013-01-21 12:52:00,72.0,59.0,-100.00,NE,46,8.0,23.0,63,0.00,,,0.00,862.000000,,2013-01-21 22:52:00,
2013-01-21 13:22:00,72.0,58.0,-100.00,NE,39,9.0,19.0,62,0.00,,,0.00,928.000000,,2013-01-21 23:22:00,
2013-01-21 13:33:00,72.0,58.0,-100.00,NE,39,9.0,19.0,62,0.00,,,0.00,928.000000,,2013-01-21 23:33:00,
2013-01-21 13:42:00,72.0,58.0,-100.00,NE,39,9.0,19.0,62,0.00,,,0.00,928.000000,,2013-01-21 23:42:00,
2013-01-21 13:52:00,72.0,58.0,-100.00,NE,39,9.0,19.0,62,0.00,,,0.00,928.000000,,2013-01-21 23:52:00,
2013-01-21 14:22:00,69.0,59.0,-100.00,NE,44,7.0,15.0,70,0.00,,,0.00,353.000000,,2013-01-22 00:22:00,
2013-01-21 14:32:00,69.0,59.0,-100.00,NE,44,7.0,15.0,70,0.00,,,0.00,353.000000,,2013-01-22 00:32:00,
2013-01-21 14:42:00,69.0,59.0,-100.00,NE,44,7.0,15.0,70,0.00,,,0.00,353.000000,,2013-01-22 00:42:00,
2013-01-21 14:52:00,69.0,59.0,-100.00,NE,44,7.0,15.0,70,0.00,,,0.00,353.000000,,2013-01-22 00:52:00,
2013-01-21 15:23:00,72.0,61.0,-100.00,ENE,76,6.0,17.0,68,0.00,,,0.00,361.000000,,2013-01-22 01:23:00,
2013-01-21 15:32:00,72.0,61.0,-100.00,ENE,76,6.0,17.0,68,0.00,,,0.00,361.000000,,2013-01-22 01:32:00,
2013-01-21 15:42:00,72.0,61.0,-100.00,ENE,76,6.0,17.0,68,0.00,,,0.00,361.000000,,2013-01-22 01:42:00,
2013-01-21 15:52:00,72.0,61.0,-100.00,ENE,76,6.0,17.0,68,0.00,,,0.00,361.000000,,2013-01-22 01:52:00,
2013-01-21 16:22:00,68.0,60.0,-100.00,NE,55,8.0,16.0,75,0.00,,,0.00,325.000000,,2013-01-22 02:22:00,
2013-01-21 16:32:00,68.0,60.0,-100.00,NE,55,8.0,16.0,75,0.00,,,0.00,325.000000,,2013-01-22 02:32:00,
2013-01-21 16:42:00,68.0,60.0,-100.00,NE,55,8.0,16.0,75,0.00,,,0.00,325.000000,,2013-01-22 02:42:00,
2013-01-21 16:52:00,68.0,60.0,-100.00,NE,55,8.0,16.0,75,0.00,,,0.00,325.000000,,2013-01-22 02:52:00,
2013-01-21 17:22:00,69.0,61.0,-100.00,ENE,60,9.0,22.0,75,0.00,,,0.00,175.000000,,2013-01-22 03:22:00,
2013-01-21 17:32:00,69.0,61.0,-100.00,ENE,60,9.0,22.0,75,0.00,,,0.00,175.000000,,2013-01-22 03:32:00,
2013-01-21 17:42:00,69.0,61.0,-100.00,ENE,60,9.0,22.0,75,0.00,,,0.00,175.000000,,2013-01-22 03:42:00,
2013-01-21 17:52:00,69.0,61.0,-100.00,ENE,60,9.0,22.0,75,0.00,,,0.00,175.000000,,2013-01-22 03:52:00,
2013-01-21 18:22:00,68.0,62.0,-100.00,NE,56,7.0,18.0,81,0.00,,,0.00,61.000000,,2013-01-22 04:22:00,
2013-01-21 18:32:00,68.0,62.0,-100.00,NE,56,7.0,18.0,81,0.00,,,0.00,61.000000,,2013-01-22 04:32:00,
2013-01-21 18:42:00,68.0,62.0,-100.00,NE,56,7.0,18.0,81,0.00,,,0.00,61.000000,,2013-01-22 04:42:00,
2013-01-21 18:52:00,68.0,62.0,-100.00,NE,56,7.0,18.0,81,0.00,,,0.00,61.000000,,2013-01-22 04:52:00,
2013-01-21 19:22:00,67.0,60.0,-100.00,ENE,69,7.0,18.0,77,0.00,,,0.00,2.000000,,2013-01-22 05:22:00,
2013-01-21 19:32:00,67.0,60.0,-100.00,ENE,69,7.0,18.0,77,0.00,,,0.00,2.000000,,2013-01-22 05:32:00,
2013-01-21 19:42:00,67.0,60.0,-100.00,ENE,69,7.0,18.0,77,0.00,,,0.00,2.000000,,2013-01-22 05:42:00,
2013-01-21 19:52:00,67.0,60.0,-100.00,ENE,69,7.0,18.0,77,0.00,,,0.00,2.000000,,2013-01-22 05:52:00,
2013-01-21 20:22:00,67.0,60.0,-100.00,ENE,69,8.0,21.0,79,0.00,,,0.00,0.000000,,2013-01-22 06:22:00,
2013-01-21 20:32:00,67.0,60.0,-100.00,ENE,69,8.0,21.0,79,0.00,,,0.00,0.000000,,2013-01-22 06:32:00,
2013-01-21 20:42:00,67.0,60.0,-100.00,ENE,69,8.0,21.0,79,0.00,,,0.00,0.000000,,2013-01-22 06:42:00,
2013-01-21 20:52:00,67.0,60.0,-100.00,ENE,69,8.0,21.0,79,0.00,,,0.00,0.000000,,2013-01-22 06:52:00,
2013-01-21 21:22:00,65.0,59.0,-100.00,ENE,74,6.0,21.0,81,0.00,,,0.00,0.000000,,2013-01-22 07:22:00,
2013-01-21 21:32:00,65.0,59.0,-100.00,ENE,74,6.0,21.0,81,0.00,,,0.00,0.000000,,2013-01-22 07:32:00,
2013-01-21 21:42:00,65.0,59.0,-100.00,ENE,74,6.0,21.0,81,0.00,,,0.00,0.000000,,2013-01-22 07:42:00,
2013-01-21 21:52:00,65.0,59.0,-100.00,ENE,74,6.0,21.0,81,0.00,,,0.00,0.000000,,2013-01-22 07:52:00,
2013-01-21 22:22:00,66.0,61.0,-100.00,ENE,73,6.0,20.0,83,0.00,,,0.00,0.000000,,2013-01-22 08:22:00,
2013-01-21 22:32:00,66.0,61.0,-100.00,ENE,73,6.0,20.0,83,0.00,,,0.00,0.000000,,2013-01-22 08:32:00,
2013-01-21 22:42:00,66.0,61.0,-100.00,ENE,73,6.0,20.0,83,0.00,,,0.00,0.000000,,2013-01-22 08:42:00,
2013-01-21 22:52:00,66.0,61.0,-100.00,ENE,73,6.0,20.0,83,0.00,,,0.00,0.000000,,2013-01-22 08:52:00,
2013-01-21 23:22:00,66.0,61.0,-100.00,ESE,113,5.0,17.0,83,0.00,,,0.00,0.000000,,2013-01-22 09:22:00,
2013-01-21 23:32:00,66.0,61.0,-100.00,ESE,113,5.0,17.0,83,0.00,,,0.00,0.000000,,2013-01-22 09:32:00,
2013-01-21 23:42:00,66.0,61.0,-100.00,ESE,113,5.0,17.0,83,0.00,,,0.00,0.000000,,2013-01-22 09:42:00,
2013-01-21 23:52:00,66.0,61.0,-100.00,ESE,113,5.0,17.0,83,0.00,,,0.00,0.000000,,2013-01-22 09:52:00,